createdAt,value
2023-04-27T00:04:43.099Z,99.90
2023-04-27T00:07:12.797Z,99.90
2023-04-27T00:09:39.434Z,99.90
2023-04-27T00:12:09.418Z,99.90
2023-04-27T00:14:36.303Z,99.90
2023-04-27T00:17:03.025Z,99.90
2023-04-27T00:19:30.520Z,99.90
2023-04-27T00:21:58.027Z,99.90
2023-04-27T00:30:11.540Z,1.00
2023-04-27T00:32:38.188Z,76.90
2023-04-27T00:38:00.076Z,99.90
2023-04-27T00:40:26.762Z,1.00
2023-04-27T00:42:53.406Z,99.90
2023-04-27T00:45:20.097Z,1.00
2023-04-27T00:47:46.921Z,99.90
2023-04-27T00:50:19.736Z,99.90
2023-04-27T00:52:46.693Z,99.90
2023-04-27T00:55:13.636Z,1.00
2023-04-27T00:57:40.305Z,99.90
2023-04-27T01:00:07.671Z,99.90
2023-04-27T01:02:35.957Z,99.90
2023-04-27T01:05:03.490Z,1.00
2023-04-27T01:07:30.373Z,1.00
2023-04-27T01:09:57.099Z,1.00
2023-04-27T01:12:23.745Z,1.00
2023-04-27T01:14:50.758Z,1.00
2023-04-27T01:17:19.208Z,99.90
2023-04-27T01:19:45.946Z,99.90
2023-04-27T01:22:15.185Z,1.00
2023-04-27T01:24:41.923Z,1.00
2023-04-27T01:27:08.604Z,1.00
2023-04-27T01:29:35.560Z,1.00
2023-04-27T01:32:02.322Z,1.00
2023-04-27T01:34:28.996Z,1.00
2023-04-27T01:36:55.669Z,96.30
2023-04-27T01:39:24.512Z,99.90
2023-04-27T01:41:51.095Z,23.00
2023-04-27T01:44:17.811Z,16.30
2023-04-27T01:46:44.696Z,99.90
2023-04-27T01:49:11.639Z,1.00
2023-04-27T01:51:38.548Z,90.20
2023-04-27T01:54:05.467Z,99.90
2023-04-27T01:56:32.613Z,1.00
2023-04-27T01:58:59.251Z,99.90
2023-04-27T02:01:26.093Z,1.00
2023-04-27T02:03:52.770Z,99.90
2023-04-27T02:06:19.645Z,1.00
2023-04-27T02:08:46.351Z,1.00
2023-04-27T02:11:12.970Z,1.00
2023-04-27T02:13:39.611Z,1.00
2023-04-27T02:16:06.728Z,44.70
2023-04-27T02:18:33.751Z,94.80
2023-04-27T02:21:00.729Z,43.80
2023-04-27T02:23:27.483Z,12.40
2023-04-27T02:25:54.172Z,99.90
2023-04-27T02:28:23.917Z,78.00
2023-04-27T02:30:51.098Z,37.30
2023-04-27T02:33:17.813Z,26.90
2023-04-27T02:35:44.566Z,1.00
2023-04-27T02:38:11.432Z,1.00
2023-04-27T02:40:38.710Z,34.50
2023-04-27T02:43:05.496Z,1.00
2023-04-27T02:45:32.126Z,1.00
2023-04-27T02:47:58.975Z,1.00
2023-04-27T02:50:28.758Z,1.00
2023-04-27T02:52:55.436Z,1.00
2023-04-27T02:55:22.294Z,1.00
2023-04-27T02:57:49.050Z,1.00
2023-04-27T03:00:16.030Z,1.00
2023-04-27T03:02:43.042Z,1.00
2023-04-27T03:05:12.896Z,1.00
2023-04-27T03:07:39.534Z,92.40
2023-04-27T03:10:07.066Z,99.90
2023-04-27T03:12:33.776Z,99.90
2023-04-27T03:15:04.309Z,99.90
2023-04-27T03:17:31.090Z,99.90
2023-04-27T03:19:58.664Z,99.90
2023-04-27T03:22:25.747Z,1.00
2023-04-27T03:24:52.413Z,1.00
2023-04-27T03:27:19.635Z,1.00
2023-04-27T03:29:46.801Z,1.00
2023-04-27T03:32:13.535Z,1.00
2023-04-27T03:34:40.233Z,1.00
2023-04-27T03:37:07.211Z,1.00
2023-04-27T03:39:33.976Z,1.00
2023-04-27T03:42:01.463Z,1.00
2023-04-27T03:44:28.264Z,1.00
2023-04-27T03:46:54.989Z,99.90
2023-04-27T03:49:21.695Z,99.90
2023-04-27T03:51:48.369Z,1.00
2023-04-27T03:54:16.278Z,1.00
2023-04-27T03:56:44.350Z,1.00
2023-04-27T03:59:11.362Z,1.00
2023-04-27T04:01:39.871Z,1.00
2023-04-27T04:04:06.870Z,1.00
2023-04-27T04:06:33.643Z,1.00
2023-04-27T04:09:00.344Z,1.00
2023-04-27T04:11:27.408Z,1.00
2023-04-27T04:13:54.171Z,1.00
2023-04-27T04:16:21.143Z,1.00
2023-04-27T04:18:48.636Z,1.00
2023-04-27T04:21:15.389Z,1.00
2023-04-27T04:23:42.072Z,99.90
2023-04-27T04:26:09.859Z,99.90
2023-04-27T04:28:37.152Z,99.90
2023-04-27T04:31:06.427Z,99.90
2023-04-27T04:33:33.372Z,1.00
2023-04-27T04:36:03.457Z,99.90
2023-04-27T04:38:30.182Z,1.00
2023-04-27T04:40:56.843Z,99.90
2023-04-27T04:43:23.437Z,99.90
2023-04-27T04:45:50.308Z,1.00
2023-04-27T04:48:17.645Z,99.90
2023-04-27T04:50:44.329Z,99.90
2023-04-27T04:53:11.077Z,25.20
2023-04-27T04:55:37.774Z,1.00
2023-04-27T04:58:04.504Z,1.00
2023-04-27T05:00:31.359Z,1.00
2023-04-27T05:02:58.826Z,1.00
2023-04-27T05:05:25.974Z,99.90
2023-04-27T05:07:53.694Z,99.90
2023-04-27T05:10:20.326Z,99.90
2023-04-27T05:12:46.955Z,10.20
2023-04-27T05:15:13.725Z,1.00
2023-04-27T05:17:42.385Z,1.00
2023-04-27T05:20:10.210Z,99.90
2023-04-27T05:22:39.758Z,4.20
2023-04-27T05:25:06.708Z,1.00
2023-04-27T05:27:35.431Z,99.90
2023-04-27T05:30:02.917Z,21.70
2023-04-27T05:32:29.648Z,1.00
2023-04-27T05:34:56.291Z,1.00
2023-04-27T05:37:25.268Z,1.00
2023-04-27T05:39:52.474Z,1.00
2023-04-27T05:42:19.185Z,99.90
2023-04-27T05:44:45.925Z,99.90
2023-04-27T05:47:12.573Z,99.90
2023-04-27T05:49:40.392Z,1.00
2023-04-27T05:52:07.475Z,1.00
2023-04-27T05:54:36.210Z,99.90
2023-04-27T05:57:02.920Z,99.90
2023-04-27T05:59:29.558Z,99.90
2023-04-27T06:01:57.953Z,99.90
2023-04-27T06:04:24.863Z,99.90
2023-04-27T06:06:54.251Z,99.90
2023-04-27T06:09:23.746Z,99.90
2023-04-27T06:11:53.527Z,99.90
2023-04-27T06:14:20.153Z,99.90
2023-04-27T06:16:46.814Z,99.90
2023-04-27T06:19:16.526Z,99.90
2023-04-27T06:21:43.543Z,99.90
2023-04-27T06:24:10.212Z,99.90
2023-04-27T06:26:36.875Z,99.90
2023-04-27T06:29:06.467Z,99.90
2023-04-27T06:31:33.579Z,99.90
2023-04-27T06:34:01.139Z,99.90
2023-04-27T06:36:32.656Z,99.90
2023-04-27T06:39:01.180Z,99.90
2023-04-27T06:41:27.961Z,99.90
2023-04-27T06:43:55.498Z,99.90
2023-04-27T06:46:23.665Z,99.90
2023-04-27T06:48:50.524Z,99.90
2023-04-27T06:51:17.213Z,99.90
2023-04-27T06:53:43.837Z,99.90
2023-04-27T06:56:12.858Z,99.90
2023-04-27T06:58:39.581Z,99.90
2023-04-27T07:01:06.875Z,99.90
2023-04-27T07:03:36.053Z,99.90
2023-04-27T07:06:04.147Z,99.90
2023-04-27T07:08:30.801Z,99.90
2023-04-27T07:10:57.502Z,99.90
2023-04-27T07:13:25.592Z,99.90
2023-04-27T07:15:58.930Z,99.90
2023-04-27T07:18:27.956Z,99.90
2023-04-27T07:20:55.362Z,99.90
2023-04-27T07:23:22.063Z,99.90
2023-04-27T07:25:49.449Z,99.90
2023-04-27T07:28:16.352Z,99.90
2023-04-27T07:30:43.104Z,99.90
2023-04-27T07:33:10.019Z,99.90
2023-04-27T07:38:03.877Z,99.90
2023-04-27T07:40:32.778Z,99.90
2023-04-27T07:42:59.788Z,99.90
2023-04-27T07:45:33.314Z,99.90
2023-04-27T07:48:03.537Z,99.90
2023-04-27T07:50:31.298Z,99.90
2023-04-27T07:52:59.025Z,99.90
2023-04-27T07:55:26.737Z,99.90
2023-04-27T07:57:54.408Z,99.90
2023-04-27T08:00:22.341Z,99.90
2023-04-27T08:02:52.348Z,99.90
2023-04-27T08:05:19.724Z,99.90
2023-04-27T08:07:47.797Z,99.90
2023-04-27T08:10:15.659Z,99.90
2023-04-27T08:12:45.165Z,99.90
2023-04-27T08:15:12.666Z,99.90
2023-04-27T08:17:43.601Z,99.90
2023-04-27T08:20:11.491Z,99.90
2023-04-27T08:22:42.701Z,99.90
2023-04-27T08:25:09.763Z,99.90
2023-04-27T08:27:40.978Z,99.90
2023-04-27T08:30:08.457Z,99.90
2023-04-27T08:32:37.698Z,99.90
2023-04-27T08:35:05.588Z,99.90
2023-04-27T08:37:34.172Z,99.90
2023-04-27T08:40:02.168Z,99.90
2023-04-27T08:42:31.304Z,99.90
2023-04-27T08:44:58.098Z,99.90
2023-04-27T08:47:38.740Z,99.90
2023-04-27T08:50:09.546Z,99.90
2023-04-27T08:52:37.682Z,99.90
2023-04-27T08:55:04.989Z,99.90
2023-04-27T08:57:35.134Z,99.90
2023-04-27T09:00:06.936Z,99.90
2023-04-27T09:02:33.893Z,99.90
2023-04-27T09:05:01.119Z,99.90
2023-04-27T09:07:28.790Z,99.90
2023-04-27T09:10:05.242Z,99.90
2023-04-27T09:12:32.166Z,99.90
2023-04-27T09:15:07.814Z,99.90
2023-04-27T09:17:36.596Z,99.90
2023-04-27T09:20:12.325Z,99.90
2023-04-27T09:22:57.656Z,99.90
2023-04-27T09:25:33.911Z,99.90
2023-04-27T09:28:02.851Z,99.90
2023-04-27T09:30:30.446Z,99.90
2023-04-27T09:32:59.596Z,99.90
2023-04-27T09:35:29.315Z,99.90
2023-04-27T09:37:59.067Z,99.90
2023-04-27T09:40:29.440Z,99.90
2023-04-27T09:43:00.121Z,99.90
2023-04-27T09:45:29.072Z,99.90
2023-04-27T09:47:55.881Z,99.90
2023-04-27T09:50:22.839Z,99.90
2023-04-27T09:52:49.777Z,99.90
2023-04-27T09:55:46.753Z,99.90
2023-04-27T09:58:33.324Z,99.90
2023-04-27T10:01:06.380Z,99.90
2023-04-27T10:03:51.760Z,99.90
2023-04-27T10:06:42.906Z,99.90
2023-04-27T10:09:10.536Z,99.90
2023-04-27T10:11:44.060Z,99.90
2023-04-27T10:14:18.225Z,99.90
2023-04-27T10:16:58.511Z,99.90
2023-04-27T10:19:28.278Z,99.90
2023-04-27T10:22:04.862Z,99.90
2023-04-27T10:24:39.962Z,99.90
2023-04-27T10:27:09.131Z,99.90
2023-04-27T10:29:41.826Z,99.90
2023-04-27T10:32:21.856Z,99.90
2023-04-27T10:34:50.944Z,99.90
2023-04-27T10:37:28.729Z,99.90
2023-04-27T10:40:08.618Z,99.90
2023-04-27T10:42:35.378Z,99.90
2023-04-27T10:45:02.860Z,99.90
2023-04-27T10:47:44.188Z,99.90
2023-04-27T10:50:17.032Z,99.90
2023-04-27T10:52:44.472Z,99.90
2023-04-27T10:55:22.407Z,99.90
2023-04-27T10:57:57.873Z,99.90
2023-04-27T11:00:27.855Z,99.90
2023-04-27T11:02:55.864Z,99.90
2023-04-27T11:05:36.080Z,99.90
2023-04-27T11:08:07.152Z,99.90
2023-04-27T11:10:35.878Z,99.90
2023-04-27T11:13:25.783Z,99.90
2023-04-27T11:15:58.022Z,99.90
2023-04-27T11:18:26.996Z,99.90
2023-04-27T11:21:10.879Z,99.90
2023-04-27T11:23:40.923Z,99.90
2023-04-27T11:26:25.051Z,99.90
2023-04-27T11:28:59.257Z,99.90
2023-04-27T11:31:27.263Z,99.90
2023-04-27T11:33:57.376Z,99.90
2023-04-27T11:36:25.851Z,99.90
2023-04-27T11:38:58.015Z,99.90
2023-04-27T11:41:36.789Z,99.90
2023-04-27T11:44:10.495Z,99.90
2023-04-27T11:46:37.992Z,99.90
2023-04-27T11:49:08.816Z,99.90
2023-04-27T11:51:39.107Z,99.90
2023-04-27T11:54:07.432Z,99.90
2023-04-27T11:56:39.627Z,99.90
2023-04-27T11:59:17.960Z,99.90
2023-04-27T12:01:44.735Z,99.90
2023-04-27T12:04:11.792Z,99.90
2023-04-27T12:06:38.940Z,99.90
2023-04-27T12:09:05.788Z,99.90
2023-04-27T12:11:35.488Z,99.90
2023-04-27T12:14:02.780Z,99.90
2023-04-27T12:16:29.546Z,99.90
2023-04-27T12:18:56.773Z,99.90
2023-04-27T12:21:26.411Z,99.90
2023-04-27T12:23:53.061Z,99.90
2023-04-27T12:26:23.828Z,99.90
2023-04-27T12:28:52.754Z,99.90
2023-04-27T12:31:28.281Z,99.90
2023-04-27T12:33:55.434Z,99.90
2023-04-27T12:36:22.123Z,99.90
2023-04-27T12:38:48.787Z,99.90
2023-04-27T12:41:15.530Z,99.90
2023-04-27T12:43:43.541Z,99.90
2023-04-27T12:46:10.224Z,99.90
2023-04-27T12:48:42.479Z,99.90
2023-04-27T12:51:10.843Z,99.90
2023-04-27T12:53:37.580Z,99.90
2023-04-27T12:56:07.897Z,99.90
2023-04-27T12:58:34.718Z,99.90
2023-04-27T13:01:07.213Z,99.90
2023-04-27T13:03:34.250Z,99.90
2023-04-27T13:06:01.930Z,99.90
2023-04-27T13:08:28.842Z,99.90
2023-04-27T13:10:55.757Z,99.90
2023-04-27T13:13:22.399Z,99.90
2023-04-27T13:15:49.592Z,99.90
2023-04-27T13:18:16.486Z,99.90
2023-04-27T13:20:46.596Z,99.90
2023-04-27T13:23:15.120Z,99.90
2023-04-27T13:25:45.090Z,99.90
2023-04-27T13:28:13.699Z,99.90
2023-04-27T13:30:40.394Z,99.90
2023-04-27T13:33:21.150Z,99.90
2023-04-27T13:35:56.168Z,99.90
2023-04-27T13:38:22.803Z,99.90
2023-04-27T13:40:49.553Z,99.90
2023-04-27T13:43:16.238Z,99.90
2023-04-27T13:45:43.125Z,99.90
2023-04-27T13:48:09.895Z,99.90
2023-04-27T13:50:36.824Z,99.90
2023-04-27T13:55:55.481Z,99.90
2023-04-27T13:58:26.247Z,99.90
2023-04-27T14:00:56.616Z,99.90
2023-04-27T14:03:24.967Z,99.90
2023-04-27T14:05:51.909Z,99.90
2023-04-27T14:08:19.684Z,99.90
2023-04-27T14:10:51.857Z,99.90
2023-04-27T14:13:19.408Z,99.90
2023-04-27T14:15:46.653Z,99.90
2023-04-27T14:21:06.692Z,99.90
2023-04-27T14:23:33.369Z,99.90
2023-04-27T14:26:00.044Z,99.90
2023-04-27T14:28:26.988Z,99.90
2023-04-27T14:30:53.666Z,99.90
2023-04-27T14:33:23.142Z,99.90
2023-04-27T14:35:52.421Z,99.90
2023-04-27T14:38:19.090Z,99.90
2023-04-27T14:40:45.952Z,99.90
2023-04-27T14:46:19.784Z,99.90
2023-04-27T14:48:48.107Z,99.90
2023-04-27T14:51:16.245Z,99.90
2023-04-27T14:53:44.270Z,99.90
2023-04-27T14:56:11.503Z,99.90
2023-04-27T14:58:39.258Z,99.90
2023-04-27T15:01:07.603Z,99.90
2023-04-27T15:03:34.589Z,99.90
2023-04-27T15:06:07.209Z,99.90
2023-04-27T15:08:34.448Z,99.90
2023-04-27T15:13:53.423Z,99.90
2023-04-27T15:16:25.175Z,99.90
2023-04-27T15:18:55.124Z,99.90
2023-04-27T15:21:22.302Z,99.90
2023-04-27T15:23:48.891Z,99.90
2023-04-27T15:26:15.824Z,99.90
2023-04-27T15:28:42.481Z,99.90
2023-04-27T15:31:09.385Z,99.90
2023-04-27T15:33:38.118Z,99.90
2023-04-27T15:36:04.999Z,99.90
2023-04-27T15:38:32.327Z,99.90
2023-04-27T15:40:59.048Z,99.90
2023-04-27T15:43:32.683Z,99.90
2023-04-27T15:45:59.271Z,99.90
2023-04-27T15:48:31.870Z,99.90
2023-04-27T15:50:58.491Z,99.90
2023-04-27T15:53:28.583Z,99.90
2023-04-27T15:55:55.314Z,99.90
2023-04-27T15:58:22.078Z,99.90
2023-04-27T16:00:48.763Z,99.90
2023-04-27T16:03:15.857Z,99.90
2023-04-27T16:08:34.236Z,99.90
2023-04-27T16:11:01.026Z,99.90
2023-04-27T16:13:28.489Z,99.90
2023-04-27T16:18:46.331Z,99.90
2023-04-27T16:24:05.996Z,99.90
2023-04-27T16:26:32.673Z,99.90
2023-04-27T16:29:02.922Z,99.90
2023-04-27T16:31:30.473Z,99.90
2023-04-27T16:34:00.967Z,99.90
2023-04-27T16:36:29.232Z,99.90
2023-04-27T16:39:03.725Z,99.90
2023-04-27T16:41:30.905Z,99.90
2023-04-27T16:43:57.804Z,99.90
2023-04-27T16:46:24.690Z,99.90
2023-04-27T16:48:55.075Z,99.90
2023-04-27T16:51:21.814Z,99.90
2023-04-27T16:53:51.715Z,99.90
2023-04-27T16:56:33.678Z,99.90
2023-04-27T16:59:01.103Z,99.90
2023-04-27T17:01:31.905Z,99.90
2023-04-27T17:06:49.932Z,99.90
2023-04-27T17:09:16.972Z,99.90
2023-04-27T17:11:45.990Z,99.90
2023-04-27T17:14:13.908Z,99.90
2023-04-27T17:16:40.641Z,99.90
2023-04-27T17:19:07.318Z,99.90
2023-04-27T17:21:34.010Z,99.90
2023-04-27T17:24:00.759Z,99.90
2023-04-27T17:26:27.815Z,99.90
2023-04-27T17:28:59.738Z,99.90
2023-04-27T17:31:27.105Z,99.90
2023-04-27T17:33:53.841Z,99.90
2023-04-27T17:36:20.699Z,99.90
2023-04-27T17:38:48.654Z,99.90
2023-04-27T17:41:15.260Z,99.90
2023-04-27T17:43:41.993Z,99.90
2023-04-27T17:46:15.522Z,99.90
2023-04-27T17:48:44.490Z,99.90
2023-04-27T17:51:11.149Z,99.90
2023-04-27T17:53:37.820Z,99.90
2023-04-27T17:56:07.529Z,99.90
2023-04-27T17:58:34.299Z,99.90
2023-04-27T18:01:04.624Z,99.90
2023-04-27T18:03:31.427Z,99.90
2023-04-27T18:05:59.045Z,99.90
2023-04-27T18:08:29.606Z,99.90
2023-04-27T18:10:56.525Z,99.90
2023-04-27T18:13:26.177Z,99.90
2023-04-27T18:15:52.910Z,99.90
2023-04-27T18:18:25.366Z,99.90
2023-04-27T18:20:52.253Z,99.90
2023-04-27T18:23:22.240Z,99.90
2023-04-27T18:25:53.125Z,99.90
2023-04-27T18:28:19.740Z,99.90
2023-04-27T18:30:49.806Z,99.90
2023-04-27T18:33:20.620Z,99.90
2023-04-27T18:35:52.996Z,99.90
2023-04-27T18:38:19.691Z,99.90
2023-04-27T18:40:53.302Z,99.90
2023-04-27T18:43:27.540Z,99.90
2023-04-27T18:45:59.638Z,99.90
2023-04-27T18:48:46.643Z,99.90
2023-04-27T18:51:14.404Z,99.90
2023-04-27T18:53:41.173Z,99.90
2023-04-27T18:59:02.187Z,99.90
2023-04-27T19:01:32.455Z,99.90
2023-04-27T19:03:59.463Z,99.90
2023-04-27T19:06:27.565Z,99.90
2023-04-27T19:08:54.163Z,99.90
2023-04-27T19:11:22.357Z,99.90
2023-04-27T19:13:52.103Z,99.90
2023-04-27T19:16:18.798Z,99.90
2023-04-27T19:18:46.903Z,99.90
2023-04-27T19:21:13.538Z,99.90
2023-04-27T19:23:43.371Z,99.90
2023-04-27T19:26:13.614Z,99.90
2023-04-27T19:28:42.568Z,99.90
2023-04-27T19:31:09.925Z,99.90
2023-04-27T19:36:30.689Z,99.90
2023-04-27T19:38:59.388Z,99.90
2023-04-27T19:41:26.683Z,99.90
2023-04-27T19:43:53.521Z,99.90
2023-04-27T19:46:22.296Z,99.90
2023-04-27T19:48:49.069Z,99.90
2023-04-27T19:51:18.785Z,99.90
2023-04-27T19:53:45.774Z,99.90
2023-04-27T19:56:15.857Z,99.90
2023-04-27T19:58:42.559Z,99.90
2023-04-27T20:01:13.673Z,99.90
2023-04-27T20:03:40.519Z,99.90
2023-04-27T20:06:08.808Z,99.90
2023-04-27T20:08:35.675Z,99.90
2023-04-27T20:11:05.376Z,99.90
2023-04-27T20:13:37.877Z,99.90
2023-04-27T20:16:06.753Z,99.90
2023-04-27T20:18:34.117Z,99.90
2023-04-27T20:21:03.564Z,99.90
2023-04-27T20:23:31.673Z,99.90
2023-04-27T20:25:58.330Z,99.90
2023-04-27T20:31:18.218Z,99.90
2023-04-27T20:36:37.892Z,99.90
2023-04-27T20:39:09.681Z,99.90
2023-04-27T20:41:40.506Z,99.90
2023-04-27T20:44:12.914Z,99.90
2023-04-27T20:46:39.750Z,99.90
2023-04-27T20:49:08.492Z,99.90
2023-04-27T20:51:39.066Z,99.90
2023-04-27T20:54:06.447Z,99.90
2023-04-27T20:56:35.799Z,99.90
2023-04-27T20:59:05.326Z,99.90
2023-04-27T21:01:33.930Z,99.90
2023-04-27T21:04:01.295Z,99.90
2023-04-27T21:06:32.480Z,99.90
2023-04-27T21:09:00.236Z,99.90
2023-04-27T21:11:33.547Z,99.90
2023-04-27T21:14:00.494Z,99.90
2023-04-27T21:16:27.393Z,99.90
2023-04-27T21:18:58.608Z,99.90
2023-04-27T21:21:30.489Z,99.90
2023-04-27T21:24:06.734Z,99.90
2023-04-27T21:26:37.990Z,99.90
2023-04-27T21:29:10.815Z,99.90
2023-04-27T21:31:37.816Z,99.90
2023-04-27T21:34:05.685Z,99.90
2023-04-27T21:36:35.885Z,99.90
2023-04-27T21:39:02.936Z,99.90
2023-04-27T21:41:29.683Z,99.90
2023-04-27T21:46:53.896Z,99.90
2023-04-27T21:49:20.667Z,99.90
2023-04-27T21:51:50.998Z,99.90
2023-04-27T21:57:15.166Z,1.00
2023-04-27T21:59:45.130Z,1.00
2023-04-27T22:02:11.779Z,1.00
2023-04-27T22:04:39.500Z,1.00
2023-04-27T22:07:08.256Z,99.90
2023-04-27T22:09:38.387Z,99.90
2023-04-27T22:12:09.678Z,99.90
2023-04-27T22:14:36.448Z,99.90
2023-04-27T22:17:05.516Z,99.90
2023-04-27T22:19:32.304Z,99.90
2023-04-27T22:22:08.085Z,99.90
2023-04-27T22:24:36.799Z,99.90
2023-04-27T22:27:03.970Z,99.90
2023-04-27T22:29:30.895Z,99.90
2023-04-27T22:32:01.506Z,99.90
2023-04-27T22:34:28.392Z,99.90
2023-04-27T22:36:58.380Z,99.90
2023-04-27T22:39:25.149Z,99.90
2023-04-27T22:41:53.834Z,99.90
2023-04-27T22:44:25.246Z,99.90
2023-04-27T22:46:52.104Z,99.90
2023-04-27T22:49:18.823Z,99.90
2023-04-27T22:51:46.991Z,99.90
2023-04-27T22:54:14.358Z,99.90
2023-04-27T22:56:41.668Z,99.90
2023-04-27T23:04:50.028Z,99.90
2023-04-27T23:07:19.804Z,99.90
2023-04-27T23:09:48.087Z,99.90
2023-04-27T23:12:16.691Z,99.90
2023-04-27T23:17:38.892Z,99.90
2023-04-27T23:20:20.456Z,99.90
2023-04-27T23:22:59.202Z,99.90
2023-04-27T23:25:30.087Z,99.90
2023-04-27T23:27:56.681Z,99.90
2023-04-27T23:30:26.813Z,99.90
2023-04-27T23:32:59.374Z,99.90
2023-04-27T23:38:23.850Z,99.90
2023-04-27T23:40:54.251Z,99.90
2023-04-27T23:43:24.578Z,99.90
2023-04-27T23:45:54.209Z,99.90
2023-04-27T23:48:20.860Z,1.00
2023-04-27T23:50:47.562Z,1.00
2023-04-27T23:53:14.327Z,1.00
2023-04-27T23:55:41.056Z,1.00
2023-04-27T23:58:12.660Z,1.00
